createdAt,value
2019-03-06T00:02:03.777Z,5.10
2019-03-06T00:05:08.155Z,6.40
2019-03-06T00:08:11.637Z,4.77
2019-03-06T00:11:15.143Z,4.83
2019-03-06T00:14:18.613Z,6.30
2019-03-06T00:17:22.049Z,5.70
2019-03-06T00:20:25.585Z,5.30
2019-03-06T00:23:29.020Z,6.57
2019-03-06T00:26:32.770Z,5.47
2019-03-06T00:29:36.205Z,5.27
2019-03-06T00:32:39.671Z,4.87
2019-03-06T00:35:44.751Z,5.13
2019-03-06T00:38:48.218Z,5.67
2019-03-06T00:41:51.651Z,7.20
2019-03-06T00:44:55.121Z,4.27
2019-03-06T00:47:58.827Z,5.80
2019-03-06T00:51:02.372Z,6.10
2019-03-06T00:54:05.888Z,5.07
2019-03-06T00:57:09.342Z,6.20
2019-03-06T01:00:21.554Z,5.83
2019-03-06T01:03:25.025Z,5.50
2019-03-06T01:06:28.534Z,4.43
2019-03-06T01:09:32.009Z,3.63
2019-03-06T01:12:35.451Z,5.37
2019-03-06T01:15:38.925Z,3.20
2019-03-06T01:18:42.358Z,4.77
2019-03-06T01:21:46.206Z,4.97
2019-03-06T01:24:49.642Z,4.80
2019-03-06T01:27:53.115Z,4.10
2019-03-06T01:30:56.549Z,4.23
2019-03-06T01:34:17.766Z,5.33
2019-03-06T01:37:22.859Z,4.43
2019-03-06T01:40:33.773Z,4.57
2019-03-06T01:43:44.557Z,3.77
2019-03-06T01:46:48.061Z,4.60
2019-03-06T01:49:51.500Z,5.10
2019-03-06T01:52:54.965Z,4.10
2019-03-06T01:55:58.404Z,5.40
2019-03-06T01:59:01.859Z,6.47
2019-03-06T02:02:05.326Z,4.57
2019-03-06T02:05:12.985Z,7.67
2019-03-06T02:08:17.327Z,5.33
2019-03-06T02:11:20.785Z,7.30
2019-03-06T02:14:24.314Z,7.40
2019-03-06T02:17:27.746Z,6.97
2019-03-06T02:20:31.213Z,7.63
2019-03-06T02:23:34.659Z,7.67
2019-03-06T02:26:38.117Z,5.60
2019-03-06T02:29:41.551Z,9.43
2019-03-06T02:32:45.006Z,7.87
2019-03-06T02:35:48.442Z,11.00
2019-03-06T02:38:51.913Z,14.53
2019-03-06T02:41:55.644Z,14.47
2019-03-06T02:44:59.109Z,15.20
2019-03-06T02:48:02.549Z,12.67
2019-03-06T02:51:06.019Z,14.77
2019-03-06T02:54:09.455Z,13.27
2019-03-06T02:57:12.936Z,14.73
2019-03-06T03:00:34.190Z,14.57
2019-03-06T03:03:55.556Z,12.73
2019-03-06T03:07:00.701Z,14.03
2019-03-06T03:10:06.805Z,12.90
2019-03-06T03:13:10.294Z,13.83
2019-03-06T03:16:13.728Z,15.47
2019-03-06T03:19:17.377Z,16.37
2019-03-06T03:22:20.819Z,15.60
2019-03-06T03:25:24.301Z,14.00
2019-03-06T03:28:27.826Z,19.70
2019-03-06T03:31:31.264Z,15.23
2019-03-06T03:34:34.747Z,18.17
2019-03-06T03:37:38.259Z,19.90
2019-03-06T03:40:41.786Z,22.37
2019-03-06T03:43:45.255Z,22.50
2019-03-06T03:46:48.697Z,22.53
2019-03-06T03:49:52.476Z,23.60
2019-03-06T03:52:55.977Z,22.97
2019-03-06T03:55:59.435Z,24.50
2019-03-06T03:59:02.899Z,25.27
2019-03-06T04:02:06.418Z,24.90
2019-03-06T04:05:11.559Z,21.60
2019-03-06T04:08:15.060Z,23.43
2019-03-06T04:11:18.531Z,22.97
2019-03-06T04:14:21.969Z,26.33
2019-03-06T04:17:25.426Z,22.97
2019-03-06T04:20:29.170Z,23.40
2019-03-06T04:23:32.639Z,26.27
2019-03-06T04:26:36.091Z,21.63
2019-03-06T04:29:39.628Z,23.57
2019-03-06T04:32:43.142Z,22.13
2019-03-06T04:35:46.720Z,24.20
2019-03-06T04:38:50.273Z,22.43
2019-03-06T04:41:53.708Z,22.50
2019-03-06T04:44:57.177Z,23.50
2019-03-06T04:48:00.666Z,22.17
2019-03-06T04:51:04.382Z,22.37
2019-03-06T04:54:07.857Z,21.50
2019-03-06T04:57:11.299Z,25.13
2019-03-06T05:00:19.877Z,20.73
2019-03-06T05:03:23.313Z,23.83
2019-03-06T05:06:26.793Z,22.90
2019-03-06T05:09:30.234Z,21.00
2019-03-06T05:12:33.710Z,23.33
2019-03-06T05:15:37.145Z,23.57
2019-03-06T05:18:44.655Z,22.40
2019-03-06T05:21:48.126Z,21.13
2019-03-06T05:24:51.588Z,25.90
2019-03-06T05:27:55.044Z,24.47
2019-03-06T05:30:58.578Z,20.57
2019-03-06T05:34:02.122Z,20.07
2019-03-06T05:37:14.442Z,22.10
2019-03-06T05:40:18.278Z,20.00
2019-03-06T05:43:21.722Z,18.10
2019-03-06T05:46:25.201Z,24.57
2019-03-06T05:49:28.634Z,22.33
2019-03-06T05:52:32.096Z,18.57
2019-03-06T05:55:35.537Z,19.90
2019-03-06T05:58:38.998Z,17.07
2019-03-06T06:01:42.441Z,17.27
2019-03-06T06:04:45.918Z,19.87
2019-03-06T06:07:49.350Z,17.60
2019-03-06T06:10:52.837Z,17.53
2019-03-06T06:13:56.270Z,16.60
2019-03-06T06:16:59.729Z,18.63
2019-03-06T06:20:03.552Z,15.13
2019-03-06T06:23:08.729Z,17.57
2019-03-06T06:26:12.180Z,13.63
2019-03-06T06:29:15.645Z,15.03
2019-03-06T06:32:19.081Z,11.50
2019-03-06T06:35:22.556Z,12.60
2019-03-06T06:38:25.998Z,12.93
2019-03-06T06:41:29.469Z,11.60
2019-03-06T06:44:32.905Z,12.97
2019-03-06T06:47:36.379Z,11.60
2019-03-06T06:50:49.517Z,12.80
2019-03-06T06:54:04.966Z,14.00
2019-03-06T06:57:31.069Z,13.10
2019-03-06T07:00:56.769Z,14.93
2019-03-06T07:04:29.167Z,14.27
2019-03-06T07:07:40.444Z,13.03
2019-03-06T07:10:57.825Z,15.57
2019-03-06T07:14:05.597Z,11.93
2019-03-06T07:17:10.700Z,13.90
2019-03-06T07:20:18.747Z,13.67
2019-03-06T07:23:23.850Z,16.13
2019-03-06T07:26:29.000Z,14.07
2019-03-06T07:29:40.324Z,14.63
2019-03-06T07:32:45.401Z,13.23
2019-03-06T07:35:55.817Z,15.17
2019-03-06T07:39:00.026Z,14.53
2019-03-06T07:42:21.499Z,14.90
2019-03-06T07:45:46.779Z,16.93
2019-03-06T07:48:54.949Z,16.23
2019-03-06T07:52:02.866Z,14.30
2019-03-06T07:55:13.550Z,13.23
2019-03-06T07:58:47.233Z,13.93
2019-03-06T08:02:02.635Z,13.67
2019-03-06T08:05:08.993Z,12.00
2019-03-06T08:08:12.448Z,11.93
2019-03-06T08:11:17.557Z,12.07
2019-03-06T08:14:39.188Z,12.20
2019-03-06T08:17:44.275Z,12.97
2019-03-06T08:20:55.485Z,14.30
2019-03-06T08:24:06.690Z,12.40
2019-03-06T08:27:10.163Z,11.90
2019-03-06T08:30:13.594Z,11.67
2019-03-06T08:33:18.537Z,12.13
2019-03-06T08:36:22.258Z,11.70
2019-03-06T08:39:32.717Z,10.90
2019-03-06T08:42:36.238Z,11.93
2019-03-06T08:45:53.274Z,12.70
2019-03-06T08:49:13.500Z,12.40
2019-03-06T08:52:18.649Z,10.77
2019-03-06T08:55:26.857Z,12.17
2019-03-06T08:58:37.687Z,11.83
2019-03-06T09:02:00.886Z,11.67
2019-03-06T09:05:07.042Z,10.93
2019-03-06T09:08:14.631Z,10.73
2019-03-06T09:11:25.913Z,9.73
2019-03-06T09:14:34.442Z,10.37
2019-03-06T09:17:48.345Z,9.17
2019-03-06T09:20:53.513Z,10.63
2019-03-06T09:24:01.505Z,9.47
2019-03-06T09:27:10.306Z,9.40
2019-03-06T09:30:32.223Z,8.47
2019-03-06T09:33:43.322Z,9.57
2019-03-06T09:37:04.930Z,9.27
2019-03-06T09:40:11.374Z,9.53
2019-03-06T09:43:16.478Z,9.83
2019-03-06T09:46:21.567Z,9.30
2019-03-06T09:49:29.830Z,7.93
2019-03-06T09:52:49.949Z,6.60
2019-03-06T09:56:00.986Z,7.37
2019-03-06T09:59:06.150Z,7.63
2019-03-06T10:02:17.050Z,7.87
2019-03-06T10:05:22.150Z,6.60
2019-03-06T10:08:32.718Z,8.30
2019-03-06T10:11:43.569Z,7.70
2019-03-06T10:14:57.605Z,8.10
2019-03-06T10:18:02.715Z,7.90
2019-03-06T10:21:06.451Z,9.23
2019-03-06T10:24:20.063Z,7.57
2019-03-06T10:27:27.806Z,5.97
2019-03-06T10:30:31.285Z,8.03
2019-03-06T10:33:34.890Z,6.40
2019-03-06T10:36:38.923Z,6.23
2019-03-06T10:39:42.441Z,7.03
2019-03-06T10:42:46.121Z,6.57
2019-03-06T10:45:49.634Z,5.60
2019-03-06T10:48:53.173Z,6.17
2019-03-06T10:51:56.611Z,7.47
2019-03-06T10:55:00.351Z,5.57
2019-03-06T10:58:04.678Z,6.70
2019-03-06T11:01:15.093Z,6.80
2019-03-06T11:04:35.570Z,6.73
2019-03-06T11:07:39.086Z,5.00
2019-03-06T11:10:42.624Z,6.40
2019-03-06T11:14:06.146Z,7.07
2019-03-06T11:17:16.857Z,7.53
2019-03-06T11:20:41.991Z,5.57
2019-03-06T11:23:45.534Z,5.00
2019-03-06T11:26:49.137Z,6.20
2019-03-06T11:29:52.661Z,4.87
2019-03-06T11:32:56.241Z,4.53
2019-03-06T11:36:00.317Z,5.23
2019-03-06T11:39:05.920Z,4.33
2019-03-06T11:42:09.717Z,3.77
2019-03-06T11:45:16.306Z,3.50
2019-03-06T11:48:20.716Z,7.10
2019-03-06T11:51:24.185Z,4.23
2019-03-06T11:54:27.634Z,4.83
2019-03-06T11:57:33.235Z,5.83
2019-03-06T12:00:45.125Z,5.00
2019-03-06T12:03:49.186Z,4.40
2019-03-06T12:06:52.697Z,4.47
2019-03-06T12:09:56.402Z,4.37
2019-03-06T12:12:59.909Z,4.13
2019-03-06T12:16:03.373Z,4.73
2019-03-06T12:19:06.818Z,4.97
2019-03-06T12:22:10.357Z,6.70
2019-03-06T12:25:16.652Z,5.40
2019-03-06T12:28:30.581Z,6.53
2019-03-06T12:31:51.109Z,5.07
2019-03-06T12:34:54.574Z,4.67
2019-03-06T12:37:58.086Z,7.13
2019-03-06T12:41:01.633Z,4.70
2019-03-06T12:44:10.388Z,6.17
2019-03-06T12:47:11.035Z,4.77
2019-03-06T12:50:17.333Z,4.77
2019-03-06T12:53:20.845Z,5.43
2019-03-06T12:56:24.290Z,4.57
2019-03-06T12:59:27.759Z,4.70
2019-03-06T13:02:31.205Z,4.30
2019-03-06T13:05:34.746Z,5.60
2019-03-06T13:08:38.184Z,3.73
2019-03-06T13:11:42.060Z,3.87
2019-03-06T13:14:45.594Z,3.93
2019-03-06T13:17:49.139Z,5.00
2019-03-06T13:20:52.651Z,5.23
2019-03-06T13:23:56.193Z,3.50
2019-03-06T13:27:00.662Z,4.90
2019-03-06T13:30:07.479Z,4.93
2019-03-06T13:33:13.796Z,4.10
2019-03-06T13:36:17.400Z,3.27
2019-03-06T13:39:20.943Z,3.10
2019-03-06T13:42:24.467Z,4.30
2019-03-06T13:45:29.602Z,3.73
2019-03-06T13:48:33.065Z,3.67
2019-03-06T13:51:36.904Z,4.53
2019-03-06T13:54:40.442Z,3.70
2019-03-06T13:57:44.434Z,4.33
2019-03-06T14:00:48.230Z,4.73
2019-03-06T14:03:51.750Z,4.27
2019-03-06T14:06:55.281Z,4.57
2019-03-06T14:09:58.922Z,3.97
2019-03-06T14:13:02.438Z,6.20
2019-03-06T14:16:06.063Z,4.40
2019-03-06T14:19:09.789Z,3.60
2019-03-06T14:22:13.441Z,3.50
2019-03-06T14:25:17.578Z,3.30
2019-03-06T14:28:21.434Z,3.47
2019-03-06T14:31:24.873Z,3.23
2019-03-06T14:34:28.337Z,4.23
2019-03-06T14:37:39.068Z,3.47
2019-03-06T14:40:44.721Z,4.07
2019-03-06T14:43:48.709Z,3.50
2019-03-06T14:46:52.467Z,4.20
2019-03-06T14:49:56.349Z,3.20
2019-03-06T14:53:00.360Z,4.80
2019-03-06T14:56:04.002Z,4.00
2019-03-06T14:59:07.660Z,4.33
2019-03-06T15:02:11.182Z,4.20
2019-03-06T15:05:15.858Z,5.53
2019-03-06T15:08:19.299Z,5.30
2019-03-06T15:11:22.846Z,5.70
2019-03-06T15:14:36.190Z,5.93
2019-03-06T15:17:37.267Z,7.90
2019-03-06T15:20:40.726Z,6.70
2019-03-06T15:23:44.179Z,5.10
2019-03-06T15:26:47.930Z,6.73
2019-03-06T15:29:51.440Z,5.87
2019-03-06T15:32:54.984Z,6.00
2019-03-06T15:35:59.681Z,7.03
2019-03-06T15:39:04.258Z,6.53
2019-03-06T15:42:08.530Z,6.60
2019-03-06T15:45:14.716Z,6.57
2019-03-06T15:48:18.231Z,6.27
2019-03-06T15:51:21.774Z,7.67
2019-03-06T15:54:25.295Z,7.23
2019-03-06T15:57:29.457Z,6.73
2019-03-06T16:00:46.390Z,7.17
2019-03-06T16:03:45.222Z,6.80
2019-03-06T16:06:54.019Z,6.87
2019-03-06T16:09:55.307Z,7.20
2019-03-06T16:12:58.897Z,6.03
2019-03-06T16:16:02.669Z,7.17
2019-03-06T16:19:06.160Z,6.90
2019-03-06T16:22:10.118Z,5.83
2019-03-06T16:25:14.313Z,7.63
2019-03-06T16:28:22.869Z,5.90
2019-03-06T16:31:26.311Z,6.47
2019-03-06T16:34:29.840Z,8.53
2019-03-06T16:37:33.499Z,8.20
2019-03-06T16:40:47.281Z,7.17
2019-03-06T16:43:50.811Z,5.97
2019-03-06T16:46:54.390Z,5.80
2019-03-06T16:49:57.868Z,5.00
2019-03-06T16:53:01.376Z,5.17
2019-03-06T16:56:04.993Z,6.73
2019-03-06T16:59:08.522Z,4.50
2019-03-06T17:02:12.102Z,6.10
2019-03-06T17:05:18.373Z,6.00
2019-03-06T17:08:21.965Z,4.27
2019-03-06T17:11:25.501Z,5.57
2019-03-06T17:14:29.029Z,5.80
2019-03-06T17:17:32.561Z,5.53
2019-03-06T17:20:37.148Z,4.67
2019-03-06T17:23:40.673Z,4.40
2019-03-06T17:26:44.434Z,4.60
2019-03-06T17:29:47.959Z,4.17
2019-03-06T17:32:54.570Z,4.73
2019-03-06T17:35:58.521Z,4.07
2019-03-06T17:39:01.996Z,4.40
2019-03-06T17:42:05.638Z,5.93
2019-03-06T17:45:09.495Z,3.70
2019-03-06T17:48:13.089Z,3.70
2019-03-06T17:51:16.553Z,3.87
2019-03-06T17:54:20.277Z,3.70
2019-03-06T17:57:23.806Z,3.50
2019-03-06T18:00:39.344Z,4.03
2019-03-06T18:03:49.794Z,4.83
2019-03-06T18:06:52.402Z,4.50
2019-03-06T18:09:55.922Z,6.13
2019-03-06T18:12:59.469Z,4.83
2019-03-06T18:16:03.391Z,4.07
2019-03-06T18:19:06.945Z,3.57
2019-03-06T18:22:10.458Z,3.73
2019-03-06T18:25:20.250Z,2.67
2019-03-06T18:28:23.757Z,3.83
2019-03-06T18:31:27.893Z,2.63
2019-03-06T18:34:31.409Z,5.60
2019-03-06T18:37:34.950Z,4.57
2019-03-06T18:40:38.461Z,2.97
2019-03-06T18:43:42.002Z,2.50
2019-03-06T18:46:45.546Z,3.47
2019-03-06T18:49:49.058Z,2.30
2019-03-06T18:52:52.873Z,3.03
2019-03-06T18:55:56.386Z,3.20
2019-03-06T18:58:59.944Z,4.37
2019-03-06T19:02:03.461Z,2.20
2019-03-06T19:05:08.646Z,2.70
2019-03-06T19:08:12.167Z,3.40
2019-03-06T19:11:17.241Z,2.57
2019-03-06T19:14:20.841Z,2.40
2019-03-06T19:17:24.281Z,2.53
2019-03-06T19:20:27.755Z,2.27
2019-03-06T19:23:31.290Z,1.80
2019-03-06T19:26:34.748Z,2.23
2019-03-06T19:29:38.209Z,2.50
2019-03-06T19:32:41.761Z,2.17
2019-03-06T19:35:45.278Z,2.23
2019-03-06T19:38:48.840Z,2.33
2019-03-06T19:41:52.352Z,2.17
2019-03-06T19:44:55.888Z,2.70
2019-03-06T19:47:59.445Z,1.90
2019-03-06T19:51:02.945Z,3.63
2019-03-06T19:54:06.501Z,1.80
2019-03-06T19:57:10.013Z,2.00
2019-03-06T20:00:14.034Z,4.20
2019-03-06T20:03:19.210Z,2.40
2019-03-06T20:06:27.044Z,2.07
2019-03-06T20:09:28.224Z,2.03
2019-03-06T20:12:31.785Z,2.70
2019-03-06T20:15:35.697Z,3.07
2019-03-06T20:18:39.253Z,2.23
2019-03-06T20:21:42.770Z,2.00
2019-03-06T20:24:46.518Z,2.27
2019-03-06T20:27:50.025Z,2.40
2019-03-06T20:30:53.556Z,1.87
2019-03-06T20:33:57.382Z,2.43
2019-03-06T20:37:00.918Z,3.17
2019-03-06T20:40:07.682Z,2.10
2019-03-06T20:43:11.402Z,2.20
2019-03-06T20:46:14.918Z,2.57
2019-03-06T20:49:18.467Z,2.43
2019-03-06T20:52:22.300Z,1.80
2019-03-06T20:55:25.829Z,2.97
2019-03-06T20:58:29.565Z,1.87
2019-03-06T21:01:33.039Z,2.53
2019-03-06T21:04:36.558Z,3.00
2019-03-06T21:07:45.370Z,2.33
2019-03-06T21:10:45.286Z,3.30
2019-03-06T21:13:48.730Z,2.63
2019-03-06T21:16:52.200Z,2.20
2019-03-06T21:19:55.640Z,1.83
2019-03-06T21:22:59.175Z,2.73
2019-03-06T21:26:02.718Z,2.47
2019-03-06T21:29:06.269Z,2.33
2019-03-06T21:32:09.709Z,3.37
2019-03-06T21:35:13.386Z,2.67
2019-03-06T21:38:16.935Z,2.77
2019-03-06T21:41:20.483Z,3.73
2019-03-06T21:44:23.992Z,2.13
2019-03-06T21:47:27.550Z,5.77
2019-03-06T21:50:31.063Z,3.47
2019-03-06T21:53:34.617Z,3.47
2019-03-06T21:56:38.163Z,3.80
2019-03-06T21:59:41.681Z,3.97
2019-03-06T22:02:45.202Z,4.23
2019-03-06T22:05:48.753Z,6.23
2019-03-06T22:08:52.270Z,4.33
2019-03-06T22:11:55.737Z,2.50
2019-03-06T22:14:59.181Z,4.90
2019-03-06T22:18:02.714Z,2.53
2019-03-06T22:21:06.160Z,2.90
2019-03-06T22:24:09.699Z,2.10
2019-03-06T22:27:13.135Z,2.80
2019-03-06T22:30:18.358Z,2.20
2019-03-06T22:33:21.866Z,4.03
2019-03-06T22:36:25.325Z,7.97
2019-03-06T22:39:28.863Z,2.57
2019-03-06T22:42:32.376Z,4.33
2019-03-06T22:45:35.850Z,2.53
2019-03-06T22:48:39.366Z,2.80
2019-03-06T22:51:42.822Z,3.17
2019-03-06T22:54:46.298Z,2.20
2019-03-06T22:57:49.740Z,3.33
2019-03-06T23:01:00.557Z,2.93
2019-03-06T23:04:04.505Z,3.07
2019-03-06T23:07:08.617Z,2.50
2019-03-06T23:10:12.233Z,2.50
2019-03-06T23:13:15.666Z,2.67
2019-03-06T23:16:19.330Z,2.63
2019-03-06T23:19:22.845Z,2.80
2019-03-06T23:22:26.306Z,3.73
2019-03-06T23:25:29.834Z,3.90
2019-03-06T23:28:33.386Z,2.80
2019-03-06T23:31:37.053Z,4.50
2019-03-06T23:34:40.594Z,2.87
2019-03-06T23:37:44.111Z,4.07
2019-03-06T23:40:47.649Z,4.00
2019-03-06T23:43:51.093Z,3.53
2019-03-06T23:46:54.642Z,3.33
2019-03-06T23:49:58.185Z,2.23
2019-03-06T23:53:03.269Z,3.07
2019-03-06T23:56:06.802Z,3.20
2019-03-06T23:59:10.269Z,2.40
